Time;durP1;ratioP1;P1;durP2;ratioP2;P2;SDS_P1;SDS_P2;PMS_P1;PMS_P2;Temp;Humidity;BMP_temperature;BMP_pressure;BME280_temperature;BME280_humidity;BME280_pressure;Samples;Min_cycle;Max_cycle;Signal;HPM_P1;HPM_P2
2021/10/31 00:02:05;;;;;;;51.35;29.90;;;;;;;;;;5078024;28;20028;-66
2021/10/31 00:04:31;;;;;;;51.00;28.35;;;;;;;;;;5096165;28;20189;-63
2021/10/31 00:06:58;;;;;;;53.28;30.05;;;;;;;;;;5077852;28;20084;-65
2021/10/31 00:09:24;;;;;;;54.92;30.65;;;;;;;;;;5095626;28;20483;-66
2021/10/31 00:11:50;;;;;;;61.20;29.65;;;;;;;;;;5095945;28;20103;-64
2021/10/31 00:14:16;;;;;;;55.15;27.98;;;;;;;;;;5095904;28;20032;-65
2021/10/31 00:16:43;;;;;;;41.20;23.00;;;;;;;;;;5095915;28;20028;-64
2021/10/31 00:19:09;;;;;;;38.80;22.42;;;;;;;;;;5096095;28;20428;-64
2021/10/31 00:21:35;;;;;;;45.13;24.20;;;;;;;;;;5095852;28;20020;-64
2021/10/31 00:24:01;;;;;;;42.38;24.52;;;;;;;;;;5095641;28;20028;-64
2021/10/31 00:26:28;;;;;;;43.28;25.58;;;;;;;;;;5095370;28;20057;-65
2021/10/31 00:28:54;;;;;;;49.85;25.98;;;;;;;;;;5095350;28;20384;-64
2021/10/31 00:31:20;;;;;;;46.38;26.58;;;;;;;;;;5077430;28;20032;-63
2021/10/31 00:33:46;;;;;;;45.35;25.20;;;;;;;;;;5077294;28;20077;-63
2021/10/31 00:36:13;;;;;;;40.15;23.70;;;;;;;;;;5095447;28;20024;-64
2021/10/31 00:38:39;;;;;;;42.55;23.58;;;;;;;;;;5095454;28;20028;-65
2021/10/31 00:41:05;;;;;;;45.90;23.50;;;;;;;;;;5095405;28;20354;-63
2021/10/31 00:43:34;;;;;;;45.88;24.00;;;;;;;;;;5095404;28;20484;-65
2021/10/31 00:46:01;;;;;;;42.03;24.33;;;;;;;;;;5095318;28;20031;-67
2021/10/31 00:48:27;;;;;;;44.25;25.23;;;;;;;;;;5095035;28;20110;-66
2021/10/31 00:50:54;;;;;;;46.83;26.23;;;;;;;;;;5076949;28;20027;-64
2021/10/31 00:53:20;;;;;;;45.13;26.10;;;;;;;;;;5095572;28;20088;-65
2021/10/31 00:55:46;;;;;;;44.95;23.73;;;;;;;;;;5094799;28;20031;-66
2021/10/31 00:58:13;;;;;;;49.20;24.55;;;;;;;;;;5076881;28;20024;-66
2021/10/31 01:00:40;;;;;;;52.35;26.98;;;;;;;;;;5076783;28;20028;-66
2021/10/31 01:03:06;;;;;;;50.60;26.17;;;;;;;;;;5095271;28;20062;-66
2021/10/31 01:05:39;;;;;;;64.32;35.55;;;;;;;;;;5076702;28;20035;-65
2021/10/31 01:08:19;;;;;;;52.38;28.05;;;;;;;;;;5094913;28;20035;-65
2021/10/31 01:11:00;;;;;;;52.15;27.52;;;;;;;;;;5094943;28;20044;-66
2021/10/31 01:13:46;;;;;;;62.78;32.72;;;;;;;;;;5094615;28;20032;-64
2021/10/31 01:16:50;;;;;;;89.03;45.10;;;;;;;;;;5076447;28;20076;-64
2021/10/31 01:19:35;;;;;;;134.43;61.17;;;;;;;;;;4992736;28;20590;-64
2021/10/31 01:22:16;;;;;;;136.70;68.55;;;;;;;;;;4992784;28;20102;-66
2021/10/31 01:24:51;;;;;;;137.07;71.15;;;;;;;;;;5064217;28;20042;-65
2021/10/31 01:27:21;;;;;;;146.25;68.13;;;;;;;;;;5076343;28;20032;-66
2021/10/31 01:29:53;;;;;;;137.18;67.43;;;;;;;;;;5076215;28;20024;-65
2021/10/31 01:32:32;;;;;;;126.95;62.97;;;;;;;;;;5094567;28;20051;-65
2021/10/31 01:35:02;;;;;;;128.00;64.30;;;;;;;;;;5094422;28;20492;-65
2021/10/31 01:37:34;;;;;;;119.67;59.20;;;;;;;;;;5094367;28;20055;-64
2021/10/31 01:40:13;;;;;;;124.47;60.80;;;;;;;;;;5093674;28;20721;-65
2021/10/31 01:42:43;;;;;;;119.55;55.08;;;;;;;;;;5094560;28;20016;-65
2021/10/31 01:45:21;;;;;;;125.07;63.53;;;;;;;;;;5093866;28;20417;-64
2021/10/31 01:47:56;;;;;;;146.15;69.97;;;;;;;;;;5094204;28;20626;-64
2021/10/31 01:50:32;;;;;;;121.57;63.42;;;;;;;;;;5075875;28;20073;-64
2021/10/31 01:53:03;;;;;;;115.80;59.78;;;;;;;;;;5094097;28;20082;-65
2021/10/31 01:55:32;;;;;;;126.93;63.00;;;;;;;;;;5093940;28;20036;-64
2021/10/31 01:58:00;;;;;;;119.80;60.05;;;;;;;;;;5094238;28;20035;-64
2021/10/31 02:00:28;;;;;;;105.75;55.03;;;;;;;;;;5093904;28;20441;-64
2021/10/31 02:02:56;;;;;;;118.60;57.40;;;;;;;;;;5094122;28;20055;-65
2021/10/31 02:05:24;;;;;;;116.43;58.47;;;;;;;;;;5093808;28;20020;-64
2021/10/31 02:07:52;;;;;;;114.72;59.22;;;;;;;;;;5075507;28;20115;-64
2021/10/31 02:10:19;;;;;;;102.97;54.00;;;;;;;;;;5093242;28;20046;-67
2021/10/31 02:12:47;;;;;;;109.38;54.45;;;;;;;;;;5093732;28;20027;-67
2021/10/31 02:15:15;;;;;;;105.78;51.97;;;;;;;;;;5093571;28;20123;-67
2021/10/31 02:17:43;;;;;;;97.72;49.95;;;;;;;;;;5075358;28;20024;-65
2021/10/31 02:20:09;;;;;;;96.05;50.88;;;;;;;;;;5075316;28;20453;-64
2021/10/31 02:22:36;;;;;;;94.85;49.03;;;;;;;;;;5072573;28;20028;-64
2021/10/31 02:25:03;;;;;;;99.18;49.63;;;;;;;;;;5093205;28;20062;-65
2021/10/31 02:27:33;;;;;;;93.05;49.35;;;;;;;;;;5093306;28;20083;-65
2021/10/31 02:30:00;;;;;;;95.95;48.58;;;;;;;;;;5075118;28;20039;-65
2021/10/31 02:32:29;;;;;;;93.53;49.53;;;;;;;;;;5093165;28;20023;-64
2021/10/31 02:34:55;;;;;;;92.57;47.88;;;;;;;;;;5093076;28;20422;-65
2021/10/31 02:37:22;;;;;;;101.65;47.45;;;;;;;;;;5093237;28;20228;-66
2021/10/31 02:39:49;;;;;;;96.22;48.20;;;;;;;;;;5074970;28;20024;-64
2021/10/31 02:42:15;;;;;;;97.45;48.22;;;;;;;;;;5074899;28;20028;-66
2021/10/31 02:44:42;;;;;;;84.53;46.15;;;;;;;;;;5093156;28;20028;-65
2021/10/31 02:47:11;;;;;;;94.00;46.22;;;;;;;;;;5093084;28;20517;-65
2021/10/31 02:49:37;;;;;;;82.78;41.08;;;;;;;;;;5092890;28;20028;-65
2021/10/31 02:52:09;;;;;;;82.65;44.80;;;;;;;;;;5093074;28;20115;-64
2021/10/31 02:54:45;;;;;;;93.47;47.78;;;;;;;;;;5092883;28;20052;-66
2021/10/31 02:57:32;;;;;;;96.70;50.00;;;;;;;;;;5092938;28;20027;-64
2021/10/31 03:00:01;;;;;;;96.70;49.13;;;;;;;;;;5075118;28;20376;-64
2021/10/31 03:02:28;;;;;;;104.40;53.60;;;;;;;;;;5092874;28;20101;-64
2021/10/31 03:04:55;;;;;;;106.22;55.33;;;;;;;;;;5092635;28;20020;-64
2021/10/31 03:07:22;;;;;;;104.38;53.75;;;;;;;;;;5074788;28;20020;-63
2021/10/31 03:09:49;;;;;;;96.88;53.10;;;;;;;;;;5074405;28;20086;-63
2021/10/31 03:12:16;;;;;;;95.70;52.35;;;;;;;;;;5092723;28;20032;-64
2021/10/31 03:14:42;;;;;;;100.03;50.75;;;;;;;;;;5092204;28;20123;-64
2021/10/31 03:17:08;;;;;;;87.55;48.42;;;;;;;;;;5092853;28;20028;-66
2021/10/31 03:19:38;;;;;;;91.22;47.60;;;;;;;;;;5092677;28;20027;-65
2021/10/31 03:22:05;;;;;;;92.88;49.58;;;;;;;;;;5092728;28;20464;-64
2021/10/31 03:24:32;;;;;;;87.53;48.78;;;;;;;;;;5092709;28;20245;-65
2021/10/31 03:26:58;;;;;;;84.85;48.10;;;;;;;;;;5092730;28;20024;-65
2021/10/31 03:29:24;;;;;;;94.63;47.55;;;;;;;;;;5074498;28;20387;-67
2021/10/31 03:31:51;;;;;;;82.30;45.67;;;;;;;;;;5074447;28;20035;-66
2021/10/31 03:34:17;;;;;;;85.00;44.75;;;;;;;;;;5092519;28;20031;-64
2021/10/31 03:36:44;;;;;;;76.35;43.22;;;;;;;;;;5074176;28;20024;-66
2021/10/31 03:39:10;;;;;;;80.00;44.22;;;;;;;;;;5092873;28;20032;-66
2021/10/31 03:41:36;;;;;;;79.10;43.63;;;;;;;;;;5092533;28;20056;-66
2021/10/31 03:44:04;;;;;;;86.70;44.70;;;;;;;;;;5092823;28;20024;-67
2021/10/31 03:46:30;;;;;;;81.90;45.15;;;;;;;;;;5074302;28;20111;-65
2021/10/31 03:48:56;;;;;;;81.07;46.05;;;;;;;;;;5092167;28;20103;-64
2021/10/31 03:51:23;;;;;;;90.53;48.10;;;;;;;;;;5092451;28;20446;-64
2021/10/31 03:53:49;;;;;;;87.07;47.38;;;;;;;;;;5092379;28;20506;-66
2021/10/31 03:56:15;;;;;;;84.45;46.67;;;;;;;;;;5092385;28;20029;-65
2021/10/31 03:58:41;;;;;;;83.35;46.08;;;;;;;;;;5073905;28;20031;-66
2021/10/31 04:01:10;;;;;;;93.90;50.58;;;;;;;;;;5074143;28;20064;-65
2021/10/31 04:03:36;;;;;;;80.88;42.22;;;;;;;;;;5096254;28;20058;-66
2021/10/31 04:06:02;;;;;;;76.90;40.05;;;;;;;;;;5096147;28;20078;-66
2021/10/31 04:08:28;;;;;;;67.47;38.80;;;;;;;;;;5095604;28;20492;-64
2021/10/31 04:10:54;;;;;;;75.68;40.47;;;;;;;;;;5096040;28;20107;-64
2021/10/31 04:13:20;;;;;;;68.95;38.05;;;;;;;;;;5076148;28;20034;-64
2021/10/31 04:15:47;;;;;;;70.07;37.08;;;;;;;;;;5077685;28;20035;-64
2021/10/31 04:18:14;;;;;;;64.03;37.40;;;;;;;;;;5095924;28;20120;-64
2021/10/31 04:20:40;;;;;;;74.78;40.50;;;;;;;;;;5095894;28;20056;-63
2021/10/31 04:23:06;;;;;;;73.95;38.70;;;;;;;;;;5077697;28;20456;-66
2021/10/31 04:25:32;;;;;;;68.55;38.38;;;;;;;;;;5096098;28;20067;-63
2021/10/31 04:27:59;;;;;;;77.20;42.65;;;;;;;;;;5095728;28;20349;-64
2021/10/31 04:30:25;;;;;;;78.97;43.05;;;;;;;;;;5095721;28;20028;-64
2021/10/31 04:32:51;;;;;;;75.63;40.85;;;;;;;;;;5095648;28;20021;-65
2021/10/31 04:35:17;;;;;;;77.03;40.72;;;;;;;;;;5095720;28;20112;-65
2021/10/31 04:37:45;;;;;;;71.57;39.03;;;;;;;;;;5095832;28;20024;-64
2021/10/31 04:40:14;;;;;;;75.95;39.92;;;;;;;;;;5077333;28;20379;-65
2021/10/31 04:42:41;;;;;;;73.10;38.67;;;;;;;;;;5095436;28;20352;-64
2021/10/31 04:45:08;;;;;;;76.35;40.70;;;;;;;;;;5095470;28;20124;-66
2021/10/31 04:47:34;;;;;;;79.97;44.25;;;;;;;;;;5095315;28;20059;-66
2021/10/31 04:50:00;;;;;;;87.72;45.65;;;;;;;;;;5095311;28;20099;-66
2021/10/31 04:52:27;;;;;;;85.65;48.38;;;;;;;;;;5095333;28;20024;-65
2021/10/31 04:54:53;;;;;;;96.75;50.10;;;;;;;;;;5095257;28;20032;-64
2021/10/31 04:57:19;;;;;;;93.25;53.25;;;;;;;;;;5095208;28;20034;-63
2021/10/31 04:59:45;;;;;;;89.20;49.60;;;;;;;;;;5095131;28;20020;-64
2021/10/31 05:02:11;;;;;;;74.28;39.83;;;;;;;;;;5076910;28;20028;-66
2021/10/31 05:04:37;;;;;;;72.60;40.20;;;;;;;;;;5076956;28;20152;-67
2021/10/31 05:07:04;;;;;;;79.93;40.17;;;;;;;;;;5095268;28;20042;-65
2021/10/31 05:09:30;;;;;;;73.57;41.40;;;;;;;;;;5094554;28;20136;-65
2021/10/31 05:11:56;;;;;;;70.90;40.25;;;;;;;;;;5094546;28;20396;-65
2021/10/31 05:14:22;;;;;;;68.70;37.80;;;;;;;;;;5091738;28;20044;-67
2021/10/31 05:16:48;;;;;;;76.40;40.85;;;;;;;;;;5093609;28;20529;-67
2021/10/31 05:19:16;;;;;;;80.00;41.55;;;;;;;;;;5094497;28;20031;-66
2021/10/31 05:21:42;;;;;;;85.45;45.72;;;;;;;;;;5094205;28;20072;-66
2021/10/31 05:24:08;;;;;;;91.15;47.42;;;;;;;;;;5076391;28;20024;-67
2021/10/31 05:26:35;;;;;;;98.20;49.65;;;;;;;;;;5094452;28;20460;-65
2021/10/31 05:29:01;;;;;;;96.00;47.55;;;;;;;;;;5076224;28;20082;-65
2021/10/31 05:31:27;;;;;;;93.80;47.28;;;;;;;;;;5094342;28;20055;-65
2021/10/31 05:33:53;;;;;;;111.35;54.45;;;;;;;;;;5092007;28;20028;-66
2021/10/31 05:36:20;;;;;;;116.85;56.20;;;;;;;;;;5093735;28;20081;-66
2021/10/31 05:38:47;;;;;;;123.47;62.90;;;;;;;;;;5094215;28;20089;-64
2021/10/31 05:41:13;;;;;;;133.55;63.70;;;;;;;;;;5075365;28;20468;-64
2021/10/31 05:43:39;;;;;;;129.55;60.85;;;;;;;;;;5093817;28;20133;-67
2021/10/31 05:46:05;;;;;;;133.40;61.70;;;;;;;;;;5094052;28;20051;-67
2021/10/31 05:48:31;;;;;;;115.35;59.38;;;;;;;;;;5075597;28;20023;-67
2021/10/31 05:50:58;;;;;;;117.78;58.72;;;;;;;;;;5093601;28;20407;-68
2021/10/31 05:53:24;;;;;;;116.65;57.17;;;;;;;;;;5075728;28;20020;-67
2021/10/31 05:55:51;;;;;;;106.88;53.20;;;;;;;;;;5075410;28;20080;-67
2021/10/31 05:58:17;;;;;;;109.82;55.13;;;;;;;;;;5093678;28;20039;-68
2021/10/31 06:00:43;;;;;;;96.88;52.50;;;;;;;;;;5093369;28;20078;-66
2021/10/31 06:03:10;;;;;;;110.55;55.83;;;;;;;;;;5093933;28;20085;-67
2021/10/31 06:05:36;;;;;;;109.78;57.25;;;;;;;;;;5093778;28;20039;-68
2021/10/31 06:08:03;;;;;;;122.65;60.30;;;;;;;;;;5075512;28;20039;-67
2021/10/31 06:10:29;;;;;;;110.68;55.97;;;;;;;;;;5091068;28;20559;-69
2021/10/31 06:12:55;;;;;;;125.35;65.32;;;;;;;;;;5075329;28;20034;-69
2021/10/31 06:15:22;;;;;;;121.20;60.25;;;;;;;;;;5075261;28;20173;-66
2021/10/31 06:17:48;;;;;;;124.40;64.75;;;;;;;;;;5093548;28;20730;-67
2021/10/31 06:20:15;;;;;;;124.07;61.92;;;;;;;;;;5093061;28;20056;-67
2021/10/31 06:22:42;;;;;;;133.15;62.75;;;;;;;;;;5092979;28;20031;-69
2021/10/31 06:25:09;;;;;;;140.52;66.78;;;;;;;;;;5093069;28;20119;-68
2021/10/31 06:27:35;;;;;;;148.07;72.22;;;;;;;;;;5093102;28;20024;-69
2021/10/31 06:30:01;;;;;;;135.15;66.72;;;;;;;;;;5075227;28;20031;-66
2021/10/31 06:32:27;;;;;;;140.18;70.88;;;;;;;;;;5093170;28;20073;-67
2021/10/31 06:34:54;;;;;;;160.23;75.88;;;;;;;;;;5075016;28;20425;-66
2021/10/31 06:37:21;;;;;;;165.98;78.22;;;;;;;;;;5093294;28;20085;-66
2021/10/31 06:39:47;;;;;;;149.57;75.97;;;;;;;;;;5092973;28;20357;-65
2021/10/31 06:42:13;;;;;;;164.13;77.60;;;;;;;;;;5092692;28;20056;-65
2021/10/31 06:44:39;;;;;;;146.13;73.47;;;;;;;;;;5093479;28;20059;-68
2021/10/31 06:47:05;;;;;;;154.23;73.28;;;;;;;;;;5092750;28;20058;-66
2021/10/31 06:49:32;;;;;;;157.70;78.82;;;;;;;;;;5074838;28;20384;-64
2021/10/31 06:51:59;;;;;;;148.02;72.60;;;;;;;;;;5093007;28;20060;-66
2021/10/31 06:54:27;;;;;;;142.27;74.70;;;;;;;;;;5074763;28;20478;-66
2021/10/31 06:56:54;;;;;;;140.02;73.55;;;;;;;;;;5074702;28;20032;-66
2021/10/31 06:59:20;;;;;;;139.90;74.22;;;;;;;;;;5074192;28;20024;-64
2021/10/31 07:01:46;;;;;;;123.10;65.95;;;;;;;;;;5074203;28;20020;-66
2021/10/31 07:04:12;;;;;;;133.10;69.07;;;;;;;;;;5074279;28;20059;-67
2021/10/31 07:06:39;;;;;;;135.20;65.53;;;;;;;;;;5092882;28;20084;-67
2021/10/31 07:09:06;;;;;;;125.95;60.75;;;;;;;;;;5092580;28;20052;-65
2021/10/31 07:11:32;;;;;;;133.38;64.57;;;;;;;;;;5092924;28;20119;-66
2021/10/31 07:13:58;;;;;;;106.20;55.20;;;;;;;;;;5092640;28;20024;-67
2021/10/31 07:16:24;;;;;;;113.50;57.83;;;;;;;;;;5074733;28;20357;-66
2021/10/31 07:18:52;;;;;;;111.63;57.95;;;;;;;;;;5074998;28;20372;-66
2021/10/31 07:21:18;;;;;;;92.55;48.53;;;;;;;;;;5074268;28;20032;-66
2021/10/31 07:23:44;;;;;;;81.40;48.83;;;;;;;;;;5092785;28;20107;-67
2021/10/31 07:26:12;;;;;;;78.60;46.55;;;;;;;;;;5092821;28;20104;-65
2021/10/31 07:28:38;;;;;;;81.90;45.08;;;;;;;;;;5092507;28;20028;-64
2021/10/31 07:31:05;;;;;;;83.45;44.25;;;;;;;;;;5091925;28;20032;-65
2021/10/31 07:33:32;;;;;;;83.13;45.33;;;;;;;;;;5090201;28;20028;-68
2021/10/31 07:35:58;;;;;;;88.88;49.20;;;;;;;;;;5092576;28;20103;-67
2021/10/31 07:38:24;;;;;;;99.15;52.45;;;;;;;;;;5096303;28;20166;-65
2021/10/31 07:40:51;;;;;;;96.45;52.08;;;;;;;;;;5078452;28;20556;-67
2021/10/31 07:43:18;;;;;;;96.63;54.13;;;;;;;;;;5096153;28;20107;-66
2021/10/31 07:45:44;;;;;;;100.20;57.30;;;;;;;;;;5078360;28;20051;-66
2021/10/31 07:48:10;;;;;;;100.03;54.83;;;;;;;;;;5096467;28;20472;-66
2021/10/31 07:50:37;;;;;;;97.90;55.38;;;;;;;;;;5096423;28;20508;-66
2021/10/31 07:53:04;;;;;;;112.38;61.55;;;;;;;;;;5078204;28;20024;-66
2021/10/31 07:55:33;;;;;;;101.72;59.67;;;;;;;;;;5096306;28;20036;-66
2021/10/31 07:58:00;;;;;;;103.45;63.25;;;;;;;;;;5096321;28;20039;-66
2021/10/31 08:00:27;;;;;;;91.97;57.17;;;;;;;;;;5096255;28;20028;-66
2021/10/31 08:02:56;;;;;;;96.03;57.88;;;;;;;;;;5095756;28;20024;-65
2021/10/31 08:05:22;;;;;;;103.47;63.78;;;;;;;;;;5096188;28;20036;-66
2021/10/31 08:07:49;;;;;;;116.75;74.22;;;;;;;;;;5096094;28;20460;-66
2021/10/31 08:10:19;;;;;;;119.05;74.00;;;;;;;;;;5074093;28;20052;-66
2021/10/31 08:12:45;;;;;;;126.07;75.50;;;;;;;;;;5075785;28;20025;-66
2021/10/31 08:15:11;;;;;;;136.02;83.60;;;;;;;;;;5073756;28;20060;-66
2021/10/31 08:17:38;;;;;;;123.30;76.03;;;;;;;;;;5075410;28;20400;-64
2021/10/31 08:20:04;;;;;;;135.48;85.30;;;;;;;;;;5075700;28;20050;-67
2021/10/31 08:22:30;;;;;;;120.97;78.65;;;;;;;;;;5075384;28;20440;-67
2021/10/31 08:24:57;;;;;;;104.43;65.60;;;;;;;;;;5074266;28;20063;-64
2021/10/31 08:27:23;;;;;;;89.80;56.42;;;;;;;;;;5075612;28;20036;-66
2021/10/31 08:29:50;;;;;;;60.75;37.90;;;;;;;;;;5075492;28;20027;-66
2021/10/31 08:32:17;;;;;;;52.45;32.70;;;;;;;;;;5074096;28;20427;-65
2021/10/31 08:54:12;;;;;;;68.35;47.28;;;12.20;99.90;;;;;;5110399;27;20481;-67
2021/10/31 08:56:38;;;;;;;88.25;58.97;;;12.20;99.90;;;;;;5108720;28;20036;-67
2021/10/31 08:59:04;;;;;;;75.78;48.97;;;12.30;99.90;;;;;;5110491;28;20046;-66
2021/10/31 09:01:31;;;;;;;86.30;55.38;;;12.30;99.90;;;;;;5110844;28;20024;-66
2021/10/31 09:03:57;;;;;;;80.07;50.38;;;12.40;99.90;;;;;;5109272;28;20115;-66
2021/10/31 09:06:26;;;;;;;75.32;47.58;;;12.50;99.90;;;;;;5109213;28;20482;-67
2021/10/31 09:08:53;;;;;;;65.65;42.33;;;12.50;99.90;;;;;;5110577;28;20089;-65
2021/10/31 09:11:19;;;;;;;62.53;40.75;;;12.70;99.90;;;;;;5110240;28;20468;-66
2021/10/31 09:13:54;;;;;;;63.20;42.25;;;12.80;99.90;;;;;;5109717;28;20035;-66
2021/10/31 09:16:20;;;;;;;71.97;44.10;;;12.90;99.90;;;;;;5110478;28;20036;-66
2021/10/31 09:18:46;;;;;;;55.83;35.95;;;13.00;99.90;;;;;;5110020;28;20020;-67
2021/10/31 09:21:12;;;;;;;63.28;39.47;;;13.10;99.70;;;;;;5108916;28;20031;-68
2021/10/31 09:23:38;;;;;;;62.47;40.58;;;13.20;98.90;;;;;;5108868;28;20040;-67
2021/10/31 09:26:05;;;;;;;50.15;29.70;;;13.20;98.40;;;;;;5110242;28;20019;-67
2021/10/31 09:28:31;;;;;;;47.35;29.85;;;13.40;97.60;;;;;;5110248;28;20031;-66
2021/10/31 09:30:57;;;;;;;51.03;31.42;;;13.50;97.60;;;;;;5109727;28;20361;-66
2021/10/31 09:33:23;;;;;;;41.60;25.33;;;13.60;97.90;;;;;;5109913;28;20035;-67
2021/10/31 09:35:57;;;;;;;45.58;23.38;;;13.80;98.00;;;;;;5109921;28;20034;-66
2021/10/31 09:38:26;;;;;;;33.55;18.42;;;13.90;99.80;;;;;;5109950;28;20363;-67
2021/10/31 09:40:53;;;;;;;35.65;17.88;;;14.20;99.70;;;;;;5109889;28;20532;-69
2021/10/31 09:43:20;;;;;;;36.10;18.20;;;14.40;99.90;;;;;;5109685;28;20030;-71
2021/10/31 09:45:46;;;;;;;30.42;18.15;;;14.60;99.90;;;;;;5109852;28;20119;-70
2021/10/31 09:48:13;;;;;;;34.47;22.63;;;14.80;99.90;;;;;;5108431;28;20115;-70
2021/10/31 09:50:45;;;;;;;30.75;20.27;;;14.90;96.30;;;;;;5109997;28;20039;-70
2021/10/31 09:53:17;;;;;;;32.08;20.60;;;15.20;97.70;;;;;;5106620;28;20051;-70
2021/10/31 09:55:43;;;;;;;27.30;19.52;;;15.40;95.00;;;;;;5096176;28;20028;-70
2021/10/31 09:58:18;;;;;;;32.33;18.70;;;15.60;93.50;;;;;;5096076;28;20024;-69
2021/10/31 10:00:47;;;;;;;31.83;18.63;;;15.80;93.80;;;;;;5095968;28;20028;-69
2021/10/31 10:06:21;;;;;;;33.13;18.35;;;16.10;91.70;;;;;;5094823;28;20388;-70
2021/10/31 10:09:06;;;;;;;21.92;14.65;;;16.30;92.40;;;;;;5075879;28;20128;-69
2021/10/31 10:11:35;;;;;;;25.27;16.30;;;16.30;92.10;;;;;;5075468;28;20464;-69
2021/10/31 10:14:07;;;;;;;22.67;15.25;;;16.70;91.70;;;;;;5075532;28;20024;-71
2021/10/31 10:16:33;;;;;;;24.52;16.45;;;17.40;89.30;;;;;;5075463;28;20861;-70
2021/10/31 10:18:59;;;;;;;24.98;18.08;;;17.80;86.50;;;;;;5075474;28;20081;-69
2021/10/31 10:21:30;;;;;;;29.98;17.50;;;18.90;87.00;;;;;;5075120;28;20166;-69
2021/10/31 10:24:00;;;;;;;25.80;15.77;;;19.70;80.80;;;;;;5075218;28;20040;-70
2021/10/31 10:26:43;;;;;;;24.42;15.48;;;20.50;77.80;;;;;;5073969;28;20028;-69
2021/10/31 10:29:19;;;;;;;27.70;17.48;;;21.30;75.30;;;;;;5075220;28;20021;-70
2021/10/31 10:32:09;;;;;;;24.48;15.93;;;22.00;73.20;;;;;;5075160;28;20029;-70
2021/10/31 10:34:49;;;;;;;20.95;15.73;;;22.70;70.60;;;;;;5075107;28;20032;-67
2021/10/31 10:37:31;;;;;;;23.83;15.02;;;23.20;69.00;;;;;;5074733;28;20432;-70
2021/10/31 10:39:58;;;;;;;21.75;15.05;;;23.20;66.30;;;;;;5074828;28;20032;-71
2021/10/31 10:42:26;;;;;;;21.90;15.23;;;23.90;65.70;;;;;;5073559;28;20387;-71
2021/10/31 10:44:57;;;;;;;20.88;14.10;;;23.80;62.60;;;;;;5074523;28;20468;-68
2021/10/31 10:47:26;;;;;;;18.90;12.48;;;23.40;62.90;;;;;;5074824;28;20020;-70
2021/10/31 10:49:55;;;;;;;18.70;13.32;;;23.30;62.10;;;;;;5074581;28;20063;-70
2021/10/31 10:52:26;;;;;;;22.90;14.95;;;22.60;61.80;;;;;;5074492;28;20076;-68
2021/10/31 10:54:54;;;;;;;25.83;15.45;;;21.50;66.30;;;;;;5074840;28;20025;-68
2021/10/31 10:57:21;;;;;;;23.45;13.73;;;21.80;67.20;;;;;;5074740;28;20031;-69
2021/10/31 10:59:59;;;;;;;56.63;30.92;;;22.60;63.50;;;;;;5073382;28;20029;-68
2021/10/31 11:02:28;;;;;;;80.45;42.40;;;24.00;60.40;;;;;;5074655;28;20028;-69
2021/10/31 11:05:00;;;;;;;37.58;20.52;;;24.40;59.10;;;;;;5073937;28;20032;-69
2021/10/31 11:07:39;;;;;;;34.45;20.17;;;25.40;57.10;;;;;;5073639;28;20036;-70
2021/10/31 11:10:11;;;;;;;30.73;18.83;;;25.40;57.30;;;;;;5074375;28;20017;-69
2021/10/31 11:12:39;;;;;;;22.70;14.60;;;24.40;57.50;;;;;;5073043;28;20033;-68
2021/10/31 11:15:08;;;;;;;36.45;23.23;;;23.40;58.50;;;;;;5074345;28;20023;-68
2021/10/31 11:17:46;;;;;;;48.95;28.38;;;23.10;58.70;;;;;;5076636;28;20115;-69
2021/10/31 11:20:19;;;;;;;47.97;28.05;;;21.80;63.40;;;;;;5073840;28;20583;-70
2021/10/31 11:22:51;;;;;;;125.75;37.22;;;20.80;65.70;;;;;;5070694;28;20047;-69
2021/10/31 11:25:20;;;;;;;67.70;34.47;;;19.30;67.60;;;;;;5072540;28;20029;-69
2021/10/31 11:27:47;;;;;;;39.70;21.08;;;19.20;69.60;;;;;;5073908;28;20025;-70
2021/10/31 11:30:14;;;;;;;52.83;30.13;;;19.40;69.50;;;;;;5071250;28;20028;-69
2021/10/31 11:32:41;;;;;;;60.25;32.72;;;19.80;68.50;;;;;;5073960;28;20036;-70
2021/10/31 11:35:10;;;;;;;29.50;17.08;;;20.20;68.40;;;;;;5073626;28;20024;-71
2021/10/31 11:37:55;;;;;;;18.52;13.18;;;21.10;64.40;;;;;;5073766;28;20028;-69
2021/10/31 11:40:36;;;;;;;34.80;20.55;;;20.80;64.80;;;;;;5073813;28;20107;-69
2021/10/31 11:43:06;;;;;;;23.30;13.25;;;20.30;66.80;;;;;;5072106;28;20025;-71
2021/10/31 11:45:37;;;;;;;38.35;21.83;;;20.20;67.50;;;;;;5073388;28;20028;-70
2021/10/31 11:48:36;;;;;;;44.03;24.67;;;19.60;69.20;;;;;;5073681;28;20028;-70
2021/10/31 11:51:02;;;;;;;28.80;15.13;;;18.90;71.30;;;;;;5060639;28;20036;-69
2021/10/31 11:53:41;;;;;;;24.55;16.15;;;18.40;71.10;;;;;;5073980;28;20047;-66
2021/10/31 11:56:25;;;;;;;37.03;20.48;;;18.10;71.70;;;;;;5083893;28;20524;-70
2021/10/31 11:58:58;;;;;;;66.82;35.05;;;18.10;72.30;;;;;;5073398;28;20051;-68
2021/10/31 12:01:37;;;;;;;28.83;18.05;;;18.20;74.20;;;;;;5071895;28;20031;-70
2021/10/31 12:04:06;;;;;;;24.73;14.82;;;18.80;70.70;;;;;;5072728;28;20032;-69
2021/10/31 12:06:32;;;;;;;14.88;11.00;;;18.30;71.70;;;;;;5077611;28;20024;-69
2021/10/31 12:09:26;;;;;;;22.02;12.65;;;18.20;71.30;;;;;;5091982;28;20028;-67
2021/10/31 12:11:55;;;;;;;30.23;18.75;;;18.10;71.10;;;;;;5083823;28;20029;-67
2021/10/31 12:14:47;;;;;;;37.72;20.70;;;18.10;72.60;;;;;;5072965;28;20559;-65
2021/10/31 12:17:14;;;;;;;54.00;28.23;;;18.30;73.20;;;;;;5072558;28;20036;-66
2021/10/31 12:19:51;;;;;;;29.80;17.60;;;18.20;73.10;;;;;;5073438;28;20465;-65
2021/10/31 12:22:29;;;;;;;16.98;12.82;;;17.90;72.00;;;;;;5089238;28;20039;-68
2021/10/31 12:25:04;;;;;;;19.70;12.70;;;17.60;73.20;;;;;;5093019;28;20442;-67
2021/10/31 12:27:48;;;;;;;17.35;9.90;;;17.40;74.30;;;;;;5093263;28;20147;-68
2021/10/31 12:30:26;;;;;;;16.83;11.32;;;17.20;74.50;;;;;;5093148;28;20024;-70
2021/10/31 12:33:08;;;;;;;28.33;17.88;;;17.10;76.10;;;;;;5093061;28;20032;-67
2021/10/31 12:35:56;;;;;;;19.52;11.80;;;17.00;76.90;;;;;;5093453;28;20051;-66
2021/10/31 12:38:22;;;;;;;17.20;11.60;;;16.90;74.70;;;;;;5092949;28;20036;-68
2021/10/31 12:41:09;;;;;;;22.50;14.57;;;16.90;74.80;;;;;;5092943;28;20028;-67
2021/10/31 12:43:46;;;;;;;19.60;12.93;;;16.90;77.40;;;;;;5093015;28;20031;-70
2021/10/31 12:46:20;;;;;;;14.40;9.70;;;16.80;76.90;;;;;;5092746;28;20077;-68
2021/10/31 12:48:48;;;;;;;15.98;10.48;;;16.80;76.40;;;;;;5092819;28;20052;-68
2021/10/31 12:51:17;;;;;;;16.70;9.93;;;16.80;76.90;;;;;;5074206;28;20058;-68
2021/10/31 12:53:44;;;;;;;12.90;9.52;;;16.80;76.40;;;;;;5070298;28;20045;-68
2021/10/31 12:56:10;;;;;;;17.75;10.73;;;16.90;76.10;;;;;;5070908;28;20079;-67
2021/10/31 12:58:37;;;;;;;19.25;10.55;;;17.10;76.40;;;;;;5072805;28;20103;-70
2021/10/31 13:01:02;;;;;;;17.55;10.90;;;17.30;75.30;;;;;;5071215;28;20036;-68
2021/10/31 13:03:28;;;;;;;15.75;9.38;;;17.10;76.10;;;;;;5071698;28;20024;-72
2021/10/31 13:05:54;;;;;;;15.63;8.93;;;17.10;75.40;;;;;;5069388;28;20388;-68
2021/10/31 13:08:21;;;;;;;16.48;8.93;;;17.30;74.60;;;;;;5089335;28;20085;-68
2021/10/31 13:10:52;;;;;;;14.15;9.15;;;17.30;74.50;;;;;;5092468;28;20460;-65
2021/10/31 13:13:27;;;;;;;15.55;8.98;;;17.20;75.00;;;;;;5091419;28;20032;-68
2021/10/31 13:15:56;;;;;;;19.33;9.80;;;17.10;76.00;;;;;;5092478;28;20039;-65
2021/10/31 13:18:31;;;;;;;16.15;9.88;;;17.00;76.60;;;;;;5092359;28;20019;-67
2021/10/31 13:21:10;;;;;;;16.58;9.45;;;16.80;75.80;;;;;;5092597;28;20078;-65
2021/10/31 13:23:38;;;;;;;16.83;10.70;;;16.70;76.80;;;;;;5092658;28;20048;-65
2021/10/31 13:26:07;;;;;;;17.90;11.27;;;16.60;76.80;;;;;;5092567;28;20032;-65
2021/10/31 13:28:36;;;;;;;19.80;12.10;;;16.50;76.30;;;;;;5092837;28;20125;-64
2021/10/31 13:31:13;;;;;;;18.70;12.07;;;16.50;76.70;;;;;;5096143;28;20023;-65
2021/10/31 13:33:42;;;;;;;16.70;10.25;;;16.40;77.50;;;;;;5095139;28;20024;-65
2021/10/31 13:36:15;;;;;;;18.13;9.85;;;16.30;76.80;;;;;;5096227;28;20028;-66
2021/10/31 13:38:53;;;;;;;16.67;10.13;;;16.30;77.90;;;;;;5094631;28;20028;-67
2021/10/31 13:41:27;;;;;;;21.83;11.82;;;16.30;78.00;;;;;;5095948;28;20448;-65
2021/10/31 13:43:58;;;;;;;21.23;9.98;;;16.10;79.70;;;;;;5096090;28;20066;-65
2021/10/31 13:46:29;;;;;;;17.07;10.87;;;16.10;78.90;;;;;;5095755;28;20031;-65
2021/10/31 13:49:08;;;;;;;21.75;11.70;;;16.00;80.30;;;;;;5095971;28;20020;-64
2021/10/31 13:51:38;;;;;;;16.05;9.85;;;16.00;80.30;;;;;;5095775;28;20368;-66
2021/10/31 13:54:04;;;;;;;23.45;11.20;;;16.00;79.90;;;;;;5095301;28;20039;-65
2021/10/31 13:56:45;;;;;;;23.20;12.63;;;15.90;79.70;;;;;;5073795;28;20020;-65
2021/10/31 13:59:14;;;;;;;16.63;9.85;;;15.90;80.70;;;;;;5071137;28;20369;-65
2021/10/31 14:01:43;;;;;;;17.17;9.80;;;15.90;79.00;;;;;;5072391;28;20028;-65
2021/10/31 14:04:15;;;;;;;22.08;10.18;;;15.90;79.20;;;;;;5074687;28;20024;-65